Estación Meteorológica Peña el Pijo (Robertgarden) [ 02/03/23 04:05:25 CET ]

Fecha Hora Presion(HPa) Temp (°C) Humedad % Rocio (°C) Viento ( m/s) Direccion Lluvia 1Hora(mm) Lluvia 24H(mm) LLuvia Total(mm)
2010-Aug-03 01:01:16 1012.900 19.9 38 5.1         130.53
2010-Aug-03 02:01:13 1013.200 18.3 41 4.8         130.53
2010-Aug-03 03:03:17 1012.800 16.8 46 5.0         130.53
2010-Aug-03 04:01:11 1012.800 15.0 54 5.7         130.53
2010-Aug-03 05:01:13 1012.700 14.1 60 6.5         130.53
2010-Aug-03 06:01:12 1013.000 13.9 65 7.4         130.53
2010-Aug-03 07:01:19 1013.200 14.4 68 8.6         130.53
2010-Aug-03 08:01:11 1013.300 16.4 71 11.2         130.53
2010-Aug-03 09:01:14 1013.500 18.4 72 13.3         130.53
2010-Aug-03 10:01:16 1013.700 22.5 63 15.1         130.53
2010-Aug-03 11:01:19 1013.600 25.9 50 14.7         130.53
2010-Aug-03 12:01:14 1013.400 30.9 38 14.9         130.53
2010-Aug-03 13:01:12 1013.200 33.3 27 11.6         130.53
2010-Aug-03 14:01:14 1012.800 34.3 26 11.8         130.53
2010-Aug-03 15:01:17 1012.600 33.6 30 13.7         130.53
2010-Aug-03 16:01:12 1011.800 35.6 27 13.5         130.53
2010-Aug-03 17:01:15 1011.400 32.4 30 12.7         130.53
2010-Aug-03 18:01:11 1011.100 33.8 32 14.7         130.53
2010-Aug-03 19:01:16 1011.400 31.3 37 14.8 2.2 ENE     130.53
2010-Aug-03 20:01:16 1011.800 27.8 47 15.4         130.53
2010-Aug-03 21:01:13 1012.200 25.1 59 16.5         130.53
2010-Aug-03 22:01:16 1012.400 23.3 64 16.1         130.53
2010-Aug-03 23:01:18 1013.000 21.9 69 16.0         130.53

Temperatura Máxima:35°    Temperatura Mínima:13°
Presión Máxima:1013.700 Hpa    Presión Mínima:1011.100 Hpa


Volver